sensor_id;sensor_type;location;lat;lon;timestamp;P1;durP1;ratioP1;P2;durP2;ratioP2
39018;SDS011;24786;51.984;5.872;2022-12-07T00:01:41;13.40;;;7.10;;
39018;SDS011;24786;51.984;5.872;2022-12-07T00:04:12;12.02;;;6.85;;
39018;SDS011;24786;51.984;5.872;2022-12-07T00:06:40;9.98;;;6.70;;
39018;SDS011;24786;51.984;5.872;2022-12-07T00:09:09;11.90;;;7.07;;
39018;SDS011;24786;51.984;5.872;2022-12-07T00:11:36;13.02;;;7.63;;
39018;SDS011;24786;51.984;5.872;2022-12-07T00:14:03;11.43;;;6.88;;
39018;SDS011;24786;51.984;5.872;2022-12-07T00:16:32;11.40;;;7.00;;
39018;SDS011;24786;51.984;5.872;2022-12-07T00:18:58;11.07;;;7.25;;
39018;SDS011;24786;51.984;5.872;2022-12-07T00:21:25;10.40;;;6.68;;
39018;SDS011;24786;51.984;5.872;2022-12-07T00:23:55;9.95;;;6.70;;
39018;SDS011;24786;51.984;5.872;2022-12-07T00:26:22;9.20;;;6.47;;
39018;SDS011;24786;51.984;5.872;2022-12-07T00:28:54;11.02;;;6.78;;
39018;SDS011;24786;51.984;5.872;2022-12-07T00:31:22;9.13;;;6.82;;
39018;SDS011;24786;51.984;5.872;2022-12-07T00:33:49;10.60;;;7.13;;
39018;SDS011;24786;51.984;5.872;2022-12-07T00:36:17;9.63;;;6.20;;
39018;SDS011;24786;51.984;5.872;2022-12-07T00:38:44;9.30;;;6.43;;
39018;SDS011;24786;51.984;5.872;2022-12-07T00:43:37;9.05;;;6.63;;
39018;SDS011;24786;51.984;5.872;2022-12-07T00:46:03;11.32;;;7.20;;
39018;SDS011;24786;51.984;5.872;2022-12-07T00:48:29;9.38;;;5.82;;
39018;SDS011;24786;51.984;5.872;2022-12-07T00:50:55;10.02;;;6.70;;
39018;SDS011;24786;51.984;5.872;2022-12-07T00:53:20;9.43;;;6.20;;
39018;SDS011;24786;51.984;5.872;2022-12-07T00:55:46;9.75;;;6.88;;
39018;SDS011;24786;51.984;5.872;2022-12-07T00:58:12;10.30;;;5.95;;
39018;SDS011;24786;51.984;5.872;2022-12-07T01:00:39;10.57;;;6.18;;
39018;SDS011;24786;51.984;5.872;2022-12-07T01:03:06;11.73;;;6.88;;
39018;SDS011;24786;51.984;5.872;2022-12-07T01:05:33;10.63;;;6.32;;
39018;SDS011;24786;51.984;5.872;2022-12-07T01:07:59;8.82;;;5.90;;
39018;SDS011;24786;51.984;5.872;2022-12-07T01:10:25;10.10;;;6.53;;
39018;SDS011;24786;51.984;5.872;2022-12-07T01:12:51;8.80;;;6.55;;
39018;SDS011;24786;51.984;5.872;2022-12-07T01:15:17;9.38;;;6.50;;
39018;SDS011;24786;51.984;5.872;2022-12-07T01:17:42;8.20;;;6.70;;
39018;SDS011;24786;51.984;5.872;2022-12-07T01:20:08;12.45;;;7.13;;
39018;SDS011;24786;51.984;5.872;2022-12-07T01:22:38;11.82;;;7.15;;
39018;SDS011;24786;51.984;5.872;2022-12-07T01:25:05;11.20;;;6.85;;
39018;SDS011;24786;51.984;5.872;2022-12-07T01:27:32;11.82;;;6.70;;
39018;SDS011;24786;51.984;5.872;2022-12-07T01:29:59;11.45;;;6.65;;
39018;SDS011;24786;51.984;5.872;2022-12-07T01:32:25;12.88;;;6.53;;
39018;SDS011;24786;51.984;5.872;2022-12-07T01:34:51;16.27;;;7.32;;
39018;SDS011;24786;51.984;5.872;2022-12-07T01:37:16;12.57;;;6.47;;
39018;SDS011;24786;51.984;5.872;2022-12-07T01:39:42;13.18;;;6.55;;
39018;SDS011;24786;51.984;5.872;2022-12-07T01:42:11;10.80;;;7.07;;
39018;SDS011;24786;51.984;5.872;2022-12-07T01:47:40;13.68;;;6.03;;
39018;SDS011;24786;51.984;5.872;2022-12-07T01:50:07;8.93;;;6.20;;
39018;SDS011;24786;51.984;5.872;2022-12-07T01:52:33;10.13;;;6.57;;
39018;SDS011;24786;51.984;5.872;2022-12-07T01:55:06;10.15;;;6.32;;
39018;SDS011;24786;51.984;5.872;2022-12-07T01:57:34;12.00;;;6.38;;
39018;SDS011;24786;51.984;5.872;2022-12-07T02:00:04;11.15;;;6.60;;
39018;SDS011;24786;51.984;5.872;2022-12-07T02:02:36;9.75;;;5.88;;
39018;SDS011;24786;51.984;5.872;2022-12-07T02:05:06;10.68;;;6.43;;
39018;SDS011;24786;51.984;5.872;2022-12-07T02:07:32;12.77;;;6.78;;
39018;SDS011;24786;51.984;5.872;2022-12-07T02:12:38;13.05;;;6.78;;
39018;SDS011;24786;51.984;5.872;2022-12-07T02:15:04;10.48;;;6.05;;
39018;SDS011;24786;51.984;5.872;2022-12-07T02:17:40;9.95;;;6.75;;
39018;SDS011;24786;51.984;5.872;2022-12-07T02:23:37;14.45;;;7.13;;
39018;SDS011;24786;51.984;5.872;2022-12-07T02:26:23;8.88;;;5.65;;
39018;SDS011;24786;51.984;5.872;2022-12-07T02:31:35;10.20;;;5.75;;
39018;SDS011;24786;51.984;5.872;2022-12-07T02:34:42;12.65;;;6.50;;
39018;SDS011;24786;51.984;5.872;2022-12-07T02:37:21;9.25;;;5.53;;
39018;SDS011;24786;51.984;5.872;2022-12-07T02:40:00;10.50;;;5.50;;
39018;SDS011;24786;51.984;5.872;2022-12-07T02:42:36;9.38;;;5.68;;
39018;SDS011;24786;51.984;5.872;2022-12-07T02:45:07;7.47;;;5.50;;
39018;SDS011;24786;51.984;5.872;2022-12-07T02:47:35;9.32;;;6.10;;
39018;SDS011;24786;51.984;5.872;2022-12-07T02:50:03;10.32;;;5.60;;
39018;SDS011;24786;51.984;5.872;2022-12-07T02:52:30;7.65;;;5.47;;
39018;SDS011;24786;51.984;5.872;2022-12-07T02:54:55;9.80;;;5.93;;
39018;SDS011;24786;51.984;5.872;2022-12-07T03:00:19;10.40;;;5.43;;
39018;SDS011;24786;51.984;5.872;2022-12-07T03:13:12;7.57;;;4.55;;
39018;SDS011;24786;51.984;5.872;2022-12-07T03:18:16;8.18;;;5.15;;
39018;SDS011;24786;51.984;5.872;2022-12-07T03:20:45;8.52;;;4.70;;
39018;SDS011;24786;51.984;5.872;2022-12-07T03:23:13;9.05;;;5.22;;
39018;SDS011;24786;51.984;5.872;2022-12-07T03:25:43;8.05;;;5.38;;
39018;SDS011;24786;51.984;5.872;2022-12-07T03:28:13;7.47;;;5.15;;
39018;SDS011;24786;51.984;5.872;2022-12-07T03:30:44;10.25;;;5.22;;
39018;SDS011;24786;51.984;5.872;2022-12-07T03:33:22;9.88;;;6.10;;
39018;SDS011;24786;51.984;5.872;2022-12-07T03:38:35;9.55;;;4.57;;
39018;SDS011;24786;51.984;5.872;2022-12-07T03:41:09;7.15;;;4.00;;
39018;SDS011;24786;51.984;5.872;2022-12-07T03:43:42;9.18;;;4.50;;
39018;SDS011;24786;51.984;5.872;2022-12-07T03:51:55;8.13;;;4.50;;
39018;SDS011;24786;51.984;5.872;2022-12-07T03:54:47;5.90;;;4.30;;
39018;SDS011;24786;51.984;5.872;2022-12-07T03:57:13;7.65;;;4.63;;
39018;SDS011;24786;51.984;5.872;2022-12-07T03:59:39;9.02;;;4.57;;
39018;SDS011;24786;51.984;5.872;2022-12-07T04:02:07;7.70;;;4.13;;
39018;SDS011;24786;51.984;5.872;2022-12-07T04:04:36;6.60;;;3.90;;
39018;SDS011;24786;51.984;5.872;2022-12-07T04:07:01;9.77;;;4.03;;
39018;SDS011;24786;51.984;5.872;2022-12-07T04:09:27;7.72;;;4.03;;
39018;SDS011;24786;51.984;5.872;2022-12-07T04:11:53;9.15;;;4.63;;
39018;SDS011;24786;51.984;5.872;2022-12-07T04:14:19;6.70;;;4.43;;
39018;SDS011;24786;51.984;5.872;2022-12-07T04:16:45;9.32;;;4.20;;
39018;SDS011;24786;51.984;5.872;2022-12-07T04:19:12;8.55;;;4.32;;
39018;SDS011;24786;51.984;5.872;2022-12-07T04:21:38;7.13;;;4.35;;
39018;SDS011;24786;51.984;5.872;2022-12-07T04:24:04;8.77;;;4.20;;
39018;SDS011;24786;51.984;5.872;2022-12-07T04:26:30;8.48;;;4.57;;
39018;SDS011;24786;51.984;5.872;2022-12-07T04:28:56;5.07;;;3.70;;
39018;SDS011;24786;51.984;5.872;2022-12-07T04:31:21;3.47;;;3.17;;
39018;SDS011;24786;51.984;5.872;2022-12-07T04:33:47;6.15;;;4.22;;
39018;SDS011;24786;51.984;5.872;2022-12-07T04:36:12;15.93;;;5.15;;
39018;SDS011;24786;51.984;5.872;2022-12-07T04:38:38;6.53;;;3.83;;
39018;SDS011;24786;51.984;5.872;2022-12-07T04:41:05;7.05;;;4.38;;
39018;SDS011;24786;51.984;5.872;2022-12-07T04:43:31;9.13;;;4.30;;
39018;SDS011;24786;51.984;5.872;2022-12-07T04:45:56;6.45;;;4.13;;
39018;SDS011;24786;51.984;5.872;2022-12-07T04:48:22;8.52;;;3.85;;
39018;SDS011;24786;51.984;5.872;2022-12-07T04:50:48;5.00;;;3.63;;
39018;SDS011;24786;51.984;5.872;2022-12-07T04:53:17;7.95;;;3.67;;
39018;SDS011;24786;51.984;5.872;2022-12-07T04:55:43;13.38;;;3.42;;
39018;SDS011;24786;51.984;5.872;2022-12-07T04:58:09;10.15;;;3.70;;
39018;SDS011;24786;51.984;5.872;2022-12-07T05:00:35;6.65;;;3.72;;
39018;SDS011;24786;51.984;5.872;2022-12-07T05:03:00;5.50;;;3.17;;
39018;SDS011;24786;51.984;5.872;2022-12-07T05:05:26;6.53;;;3.25;;
39018;SDS011;24786;51.984;5.872;2022-12-07T05:07:52;3.22;;;2.88;;
39018;SDS011;24786;51.984;5.872;2022-12-07T05:10:18;4.85;;;2.80;;
39018;SDS011;24786;51.984;5.872;2022-12-07T05:12:44;3.92;;;3.42;;
39018;SDS011;24786;51.984;5.872;2022-12-07T05:15:10;6.07;;;3.20;;
39018;SDS011;24786;51.984;5.872;2022-12-07T05:17:36;5.53;;;3.20;;
39018;SDS011;24786;51.984;5.872;2022-12-07T05:20:01;5.53;;;3.05;;
39018;SDS011;24786;51.984;5.872;2022-12-07T05:22:27;8.63;;;3.45;;
39018;SDS011;24786;51.984;5.872;2022-12-07T05:24:56;6.18;;;3.30;;
39018;SDS011;24786;51.984;5.872;2022-12-07T05:27:22;6.43;;;3.05;;
39018;SDS011;24786;51.984;5.872;2022-12-07T05:29:49;6.35;;;2.78;;
39018;SDS011;24786;51.984;5.872;2022-12-07T05:32:15;4.93;;;2.92;;
39018;SDS011;24786;51.984;5.872;2022-12-07T05:34:41;6.85;;;2.90;;
39018;SDS011;24786;51.984;5.872;2022-12-07T05:37:07;6.18;;;3.17;;
39018;SDS011;24786;51.984;5.872;2022-12-07T05:39:32;3.63;;;2.70;;
39018;SDS011;24786;51.984;5.872;2022-12-07T05:41:58;7.15;;;3.20;;
39018;SDS011;24786;51.984;5.872;2022-12-07T05:44:39;4.53;;;2.58;;
39018;SDS011;24786;51.984;5.872;2022-12-07T05:47:05;3.78;;;2.55;;
39018;SDS011;24786;51.984;5.872;2022-12-07T05:49:31;4.25;;;3.15;;
39018;SDS011;24786;51.984;5.872;2022-12-07T05:51:56;5.50;;;2.80;;
39018;SDS011;24786;51.984;5.872;2022-12-07T05:54:22;6.22;;;2.50;;
39018;SDS011;24786;51.984;5.872;2022-12-07T05:56:48;6.32;;;2.63;;
39018;SDS011;24786;51.984;5.872;2022-12-07T05:59:14;3.30;;;2.13;;
39018;SDS011;24786;51.984;5.872;2022-12-07T06:02:00;6.18;;;2.88;;
39018;SDS011;24786;51.984;5.872;2022-12-07T06:04:29;3.00;;;2.30;;
39018;SDS011;24786;51.984;5.872;2022-12-07T06:06:56;2.75;;;2.13;;
39018;SDS011;24786;51.984;5.872;2022-12-07T06:09:22;3.78;;;2.38;;
39018;SDS011;24786;51.984;5.872;2022-12-07T06:11:49;4.47;;;3.00;;
39018;SDS011;24786;51.984;5.872;2022-12-07T06:14:33;4.38;;;2.30;;
39018;SDS011;24786;51.984;5.872;2022-12-07T06:16:59;6.40;;;2.65;;
39018;SDS011;24786;51.984;5.872;2022-12-07T06:19:25;4.88;;;2.85;;
39018;SDS011;24786;51.984;5.872;2022-12-07T06:21:51;6.70;;;2.55;;
39018;SDS011;24786;51.984;5.872;2022-12-07T06:24:17;5.32;;;2.60;;
39018;SDS011;24786;51.984;5.872;2022-12-07T06:26:43;5.22;;;2.92;;
39018;SDS011;24786;51.984;5.872;2022-12-07T06:29:12;3.30;;;2.60;;
39018;SDS011;24786;51.984;5.872;2022-12-07T06:31:38;4.85;;;2.80;;
39018;SDS011;24786;51.984;5.872;2022-12-07T06:34:05;4.43;;;2.80;;
39018;SDS011;24786;51.984;5.872;2022-12-07T06:36:33;4.28;;;2.60;;
39018;SDS011;24786;51.984;5.872;2022-12-07T06:38:59;6.25;;;2.78;;
39018;SDS011;24786;51.984;5.872;2022-12-07T06:41:28;7.63;;;2.90;;
39018;SDS011;24786;51.984;5.872;2022-12-07T06:43:54;3.72;;;2.67;;
39018;SDS011;24786;51.984;5.872;2022-12-07T06:46:19;5.43;;;3.05;;
39018;SDS011;24786;51.984;5.872;2022-12-07T06:48:45;6.65;;;3.08;;
39018;SDS011;24786;51.984;5.872;2022-12-07T06:51:14;2.78;;;2.47;;
39018;SDS011;24786;51.984;5.872;2022-12-07T06:53:43;9.10;;;2.95;;
39018;SDS011;24786;51.984;5.872;2022-12-07T06:56:08;5.53;;;2.67;;
39018;SDS011;24786;51.984;5.872;2022-12-07T06:58:34;3.80;;;2.50;;
39018;SDS011;24786;51.984;5.872;2022-12-07T07:01:01;7.93;;;3.42;;
39018;SDS011;24786;51.984;5.872;2022-12-07T07:03:26;8.52;;;3.15;;
39018;SDS011;24786;51.984;5.872;2022-12-07T07:05:52;7.28;;;3.40;;
39018;SDS011;24786;51.984;5.872;2022-12-07T07:08:17;6.47;;;3.05;;
39018;SDS011;24786;51.984;5.872;2022-12-07T07:10:43;5.72;;;2.67;;
39018;SDS011;24786;51.984;5.872;2022-12-07T07:13:10;4.13;;;3.03;;
39018;SDS011;24786;51.984;5.872;2022-12-07T07:15:37;5.70;;;2.75;;
39018;SDS011;24786;51.984;5.872;2022-12-07T07:18:03;8.93;;;3.42;;
39018;SDS011;24786;51.984;5.872;2022-12-07T07:20:28;6.57;;;2.55;;
39018;SDS011;24786;51.984;5.872;2022-12-07T07:22:54;6.53;;;2.75;;
39018;SDS011;24786;51.984;5.872;2022-12-07T07:25:20;4.80;;;2.70;;
39018;SDS011;24786;51.984;5.872;2022-12-07T07:27:46;6.47;;;2.65;;
39018;SDS011;24786;51.984;5.872;2022-12-07T07:30:12;5.53;;;2.95;;
39018;SDS011;24786;51.984;5.872;2022-12-07T07:32:38;5.70;;;2.80;;
39018;SDS011;24786;51.984;5.872;2022-12-07T07:35:04;5.07;;;2.30;;
39018;SDS011;24786;51.984;5.872;2022-12-07T07:37:30;4.65;;;2.63;;
39018;SDS011;24786;51.984;5.872;2022-12-07T07:39:55;6.65;;;2.88;;
39018;SDS011;24786;51.984;5.872;2022-12-07T07:42:21;4.38;;;2.55;;
39018;SDS011;24786;51.984;5.872;2022-12-07T07:44:47;5.43;;;2.45;;
39018;SDS011;24786;51.984;5.872;2022-12-07T07:47:12;3.72;;;2.35;;
39018;SDS011;24786;51.984;5.872;2022-12-07T07:49:38;3.67;;;2.25;;
39018;SDS011;24786;51.984;5.872;2022-12-07T07:52:04;6.05;;;2.65;;
39018;SDS011;24786;51.984;5.872;2022-12-07T07:54:31;4.22;;;2.30;;
39018;SDS011;24786;51.984;5.872;2022-12-07T07:56:56;5.15;;;2.30;;
39018;SDS011;24786;51.984;5.872;2022-12-07T07:59:22;3.95;;;2.65;;
39018;SDS011;24786;51.984;5.872;2022-12-07T08:01:48;4.90;;;2.22;;
39018;SDS011;24786;51.984;5.872;2022-12-07T08:04:13;4.22;;;2.25;;
39018;SDS011;24786;51.984;5.872;2022-12-07T08:06:39;5.30;;;2.30;;
39018;SDS011;24786;51.984;5.872;2022-12-07T08:09:06;5.05;;;2.33;;
39018;SDS011;24786;51.984;5.872;2022-12-07T08:11:33;4.03;;;2.58;;
39018;SDS011;24786;51.984;5.872;2022-12-07T08:13:59;6.63;;;2.90;;
39018;SDS011;24786;51.984;5.872;2022-12-07T08:16:25;5.45;;;2.70;;
39018;SDS011;24786;51.984;5.872;2022-12-07T08:18:50;3.53;;;2.58;;
39018;SDS011;24786;51.984;5.872;2022-12-07T08:21:17;5.35;;;2.38;;
39018;SDS011;24786;51.984;5.872;2022-12-07T08:23:43;3.72;;;2.58;;
39018;SDS011;24786;51.984;5.872;2022-12-07T08:26:10;4.72;;;2.72;;
39018;SDS011;24786;51.984;5.872;2022-12-07T08:28:41;7.95;;;3.40;;
39018;SDS011;24786;51.984;5.872;2022-12-07T08:31:12;6.53;;;2.83;;
39018;SDS011;24786;51.984;5.872;2022-12-07T08:33:40;6.95;;;3.95;;
39018;SDS011;24786;51.984;5.872;2022-12-07T08:36:07;10.10;;;3.65;;
39018;SDS011;24786;51.984;5.872;2022-12-07T08:38:35;8.38;;;3.13;;
39018;SDS011;24786;51.984;5.872;2022-12-07T08:41:02;5.43;;;2.65;;
39018;SDS011;24786;51.984;5.872;2022-12-07T08:43:29;4.07;;;2.40;;
39018;SDS011;24786;51.984;5.872;2022-12-07T08:46:03;4.95;;;2.47;;
39018;SDS011;24786;51.984;5.872;2022-12-07T08:48:29;3.05;;;2.10;;
39018;SDS011;24786;51.984;5.872;2022-12-07T08:50:55;4.72;;;2.78;;
39018;SDS011;24786;51.984;5.872;2022-12-07T08:53:21;7.55;;;2.60;;
39018;SDS011;24786;51.984;5.872;2022-12-07T08:55:47;5.50;;;2.58;;
39018;SDS011;24786;51.984;5.872;2022-12-07T08:58:13;4.13;;;2.33;;
39018;SDS011;24786;51.984;5.872;2022-12-07T09:00:39;4.18;;;2.47;;
39018;SDS011;24786;51.984;5.872;2022-12-07T09:03:05;3.85;;;2.33;;
39018;SDS011;24786;51.984;5.872;2022-12-07T09:05:31;9.07;;;2.30;;
39018;SDS011;24786;51.984;5.872;2022-12-07T09:07:59;5.47;;;2.30;;
39018;SDS011;24786;51.984;5.872;2022-12-07T09:10:26;5.57;;;2.22;;
39018;SDS011;24786;51.984;5.872;2022-12-07T09:12:53;4.22;;;2.38;;
39018;SDS011;24786;51.984;5.872;2022-12-07T09:15:18;3.80;;;2.20;;
39018;SDS011;24786;51.984;5.872;2022-12-07T09:17:44;3.75;;;2.22;;
39018;SDS011;24786;51.984;5.872;2022-12-07T09:20:10;5.60;;;2.42;;
39018;SDS011;24786;51.984;5.872;2022-12-07T09:22:36;5.55;;;2.40;;
39018;SDS011;24786;51.984;5.872;2022-12-07T09:25:02;7.15;;;2.63;;
39018;SDS011;24786;51.984;5.872;2022-12-07T09:27:28;3.33;;;2.15;;
39018;SDS011;24786;51.984;5.872;2022-12-07T09:29:53;3.97;;;2.50;;
39018;SDS011;24786;51.984;5.872;2022-12-07T09:32:19;6.65;;;2.60;;
39018;SDS011;24786;51.984;5.872;2022-12-07T09:34:45;5.95;;;2.90;;
39018;SDS011;24786;51.984;5.872;2022-12-07T09:37:11;8.35;;;2.40;;
39018;SDS011;24786;51.984;5.872;2022-12-07T09:39:39;6.28;;;2.80;;
39018;SDS011;24786;51.984;5.872;2022-12-07T09:42:05;3.97;;;2.88;;
39018;SDS011;24786;51.984;5.872;2022-12-07T09:44:32;6.25;;;2.70;;
39018;SDS011;24786;51.984;5.872;2022-12-07T09:46:59;6.57;;;2.42;;
39018;SDS011;24786;51.984;5.872;2022-12-07T09:49:27;4.57;;;2.40;;
39018;SDS011;24786;51.984;5.872;2022-12-07T09:54:34;3.40;;;2.10;;
39018;SDS011;24786;51.984;5.872;2022-12-07T09:57:03;6.63;;;2.53;;
39018;SDS011;24786;51.984;5.872;2022-12-07T09:59:28;5.97;;;2.80;;
39018;SDS011;24786;51.984;5.872;2022-12-07T10:01:54;4.07;;;2.42;;
39018;SDS011;24786;51.984;5.872;2022-12-07T10:04:21;4.68;;;2.50;;
39018;SDS011;24786;51.984;5.872;2022-12-07T10:06:49;3.28;;;2.22;;
39018;SDS011;24786;51.984;5.872;2022-12-07T10:09:16;4.38;;;2.88;;
39018;SDS011;24786;51.984;5.872;2022-12-07T10:14:32;7.63;;;2.70;;
39018;SDS011;24786;51.984;5.872;2022-12-07T10:16:59;3.35;;;1.95;;
39018;SDS011;24786;51.984;5.872;2022-12-07T10:19:30;7.75;;;2.72;;
39018;SDS011;24786;51.984;5.872;2022-12-07T10:22:02;6.20;;;2.67;;
39018;SDS011;24786;51.984;5.872;2022-12-07T10:24:38;5.15;;;2.50;;
39018;SDS011;24786;51.984;5.872;2022-12-07T10:27:16;4.38;;;2.42;;
39018;SDS011;24786;51.984;5.872;2022-12-07T10:29:48;9.05;;;2.97;;
39018;SDS011;24786;51.984;5.872;2022-12-07T10:34:41;5.30;;;2.50;;
39018;SDS011;24786;51.984;5.872;2022-12-07T10:39:41;8.55;;;2.25;;
39018;SDS011;24786;51.984;5.872;2022-12-07T10:45:19;6.70;;;3.15;;
39018;SDS011;24786;51.984;5.872;2022-12-07T10:50:41;3.90;;;1.95;;
39018;SDS011;24786;51.984;5.872;2022-12-07T10:53:22;5.28;;;2.00;;
39018;SDS011;24786;51.984;5.872;2022-12-07T10:59:26;7.68;;;1.98;;
39018;SDS011;24786;51.984;5.872;2022-12-07T11:05:05;5.68;;;1.98;;
39018;SDS011;24786;51.984;5.872;2022-12-07T11:08:05;4.32;;;1.77;;
39018;SDS011;24786;51.984;5.872;2022-12-07T11:11:14;3.72;;;1.90;;
39018;SDS011;24786;51.984;5.872;2022-12-07T11:19:34;3.47;;;2.28;;
39018;SDS011;24786;51.984;5.872;2022-12-07T11:27:48;6.75;;;1.85;;
39018;SDS011;24786;51.984;5.872;2022-12-07T11:30:27;7.80;;;1.83;;
39018;SDS011;24786;51.984;5.872;2022-12-07T11:38:23;5.35;;;2.17;;
39018;SDS011;24786;51.984;5.872;2022-12-07T11:41:10;6.38;;;2.50;;
39018;SDS011;24786;51.984;5.872;2022-12-07T11:46:49;6.85;;;2.10;;
39018;SDS011;24786;51.984;5.872;2022-12-07T11:52:22;4.25;;;1.40;;
39018;SDS011;24786;51.984;5.872;2022-12-07T11:54:55;3.38;;;1.85;;
39018;SDS011;24786;51.984;5.872;2022-12-07T11:57:35;6.72;;;1.83;;
39018;SDS011;24786;51.984;5.872;2022-12-07T12:00:05;3.65;;;1.42;;
39018;SDS011;24786;51.984;5.872;2022-12-07T12:02:39;5.50;;;1.60;;
39018;SDS011;24786;51.984;5.872;2022-12-07T12:05:24;4.22;;;1.70;;
39018;SDS011;24786;51.984;5.872;2022-12-07T12:08:03;5.28;;;1.35;;
39018;SDS011;24786;51.984;5.872;2022-12-07T12:21:46;4.80;;;1.95;;
39018;SDS011;24786;51.984;5.872;2022-12-07T12:24:22;3.00;;;1.65;;
39018;SDS011;24786;51.984;5.872;2022-12-07T12:26:52;7.03;;;1.73;;
39018;SDS011;24786;51.984;5.872;2022-12-07T12:29:33;5.85;;;1.75;;
39018;SDS011;24786;51.984;5.872;2022-12-07T12:32:15;3.88;;;1.80;;
39018;SDS011;24786;51.984;5.872;2022-12-07T12:38:20;5.30;;;2.08;;
39018;SDS011;24786;51.984;5.872;2022-12-07T12:42:53;3.33;;;1.63;;
39018;SDS011;24786;51.984;5.872;2022-12-07T12:45:21;8.73;;;2.25;;
39018;SDS011;24786;51.984;5.872;2022-12-07T12:47:59;3.28;;;1.92;;
39018;SDS011;24786;51.984;5.872;2022-12-07T12:50:30;6.15;;;1.85;;
39018;SDS011;24786;51.984;5.872;2022-12-07T12:53:16;5.32;;;2.20;;
39018;SDS011;24786;51.984;5.872;2022-12-07T12:55:54;15.88;;;2.55;;
39018;SDS011;24786;51.984;5.872;2022-12-07T12:59:18;8.32;;;2.35;;
39018;SDS011;24786;51.984;5.872;2022-12-07T13:01:49;3.67;;;1.60;;
39018;SDS011;24786;51.984;5.872;2022-12-07T13:04:21;2.83;;;1.25;;
39018;SDS011;24786;51.984;5.872;2022-12-07T13:06:50;4.07;;;1.80;;
39018;SDS011;24786;51.984;5.872;2022-12-07T13:09:20;5.15;;;1.65;;
39018;SDS011;24786;51.984;5.872;2022-12-07T13:11:48;5.72;;;1.83;;
39018;SDS011;24786;51.984;5.872;2022-12-07T13:17:08;5.70;;;1.75;;
39018;SDS011;24786;51.984;5.872;2022-12-07T13:22:52;4.45;;;1.77;;
39018;SDS011;24786;51.984;5.872;2022-12-07T13:27:47;5.05;;;2.10;;
39018;SDS011;24786;51.984;5.872;2022-12-07T13:30:21;9.50;;;2.05;;
39018;SDS011;24786;51.984;5.872;2022-12-07T13:32:51;5.00;;;2.00;;
39018;SDS011;24786;51.984;5.872;2022-12-07T13:37:55;4.40;;;2.00;;
39018;SDS011;24786;51.984;5.872;2022-12-07T13:40:21;4.38;;;1.90;;
39018;SDS011;24786;51.984;5.872;2022-12-07T13:42:48;5.93;;;1.35;;
39018;SDS011;24786;51.984;5.872;2022-12-07T13:45:29;7.57;;;2.22;;
39018;SDS011;24786;51.984;5.872;2022-12-07T13:51:01;3.60;;;1.25;;
39018;SDS011;24786;51.984;5.872;2022-12-07T13:53:28;7.05;;;1.88;;
39018;SDS011;24786;51.984;5.872;2022-12-07T13:55:55;3.25;;;1.23;;
39018;SDS011;24786;51.984;5.872;2022-12-07T13:58:23;3.17;;;1.33;;
39018;SDS011;24786;51.984;5.872;2022-12-07T14:00:49;5.38;;;1.58;;
39018;SDS011;24786;51.984;5.872;2022-12-07T14:05:41;5.22;;;1.52;;
39018;SDS011;24786;51.984;5.872;2022-12-07T14:16:01;8.15;;;1.30;;
39018;SDS011;24786;51.984;5.872;2022-12-07T14:18:29;4.10;;;1.58;;
39018;SDS011;24786;51.984;5.872;2022-12-07T14:21:02;7.03;;;1.58;;
39018;SDS011;24786;51.984;5.872;2022-12-07T14:23:34;3.83;;;1.00;;
39018;SDS011;24786;51.984;5.872;2022-12-07T14:28:44;1.60;;;0.90;;
39018;SDS011;24786;51.984;5.872;2022-12-07T14:31:11;3.40;;;1.20;;
39018;SDS011;24786;51.984;5.872;2022-12-07T14:33:39;2.35;;;1.35;;
39018;SDS011;24786;51.984;5.872;2022-12-07T14:36:05;3.78;;;1.20;;
39018;SDS011;24786;51.984;5.872;2022-12-07T14:38:31;1.85;;;1.15;;
39018;SDS011;24786;51.984;5.872;2022-12-07T14:40:56;3.58;;;1.52;;
39018;SDS011;24786;51.984;5.872;2022-12-07T14:43:42;2.78;;;1.23;;
39018;SDS011;24786;51.984;5.872;2022-12-07T14:46:08;1.85;;;1.20;;
39018;SDS011;24786;51.984;5.872;2022-12-07T14:48:34;5.28;;;1.92;;
39018;SDS011;24786;51.984;5.872;2022-12-07T14:51:00;4.25;;;1.40;;
39018;SDS011;24786;51.984;5.872;2022-12-07T14:53:28;3.58;;;1.08;;
39018;SDS011;24786;51.984;5.872;2022-12-07T14:55:58;5.97;;;1.85;;
39018;SDS011;24786;51.984;5.872;2022-12-07T14:58:24;4.85;;;1.30;;
39018;SDS011;24786;51.984;5.872;2022-12-07T15:00:49;6.80;;;1.80;;
39018;SDS011;24786;51.984;5.872;2022-12-07T15:03:15;6.38;;;1.80;;
39018;SDS011;24786;51.984;5.872;2022-12-07T15:05:40;2.92;;;1.45;;
39018;SDS011;24786;51.984;5.872;2022-12-07T15:08:08;4.65;;;1.50;;
39018;SDS011;24786;51.984;5.872;2022-12-07T15:10:35;6.63;;;1.67;;
39018;SDS011;24786;51.984;5.872;2022-12-07T15:13:03;2.55;;;1.23;;
39018;SDS011;24786;51.984;5.872;2022-12-07T15:15:49;2.95;;;1.58;;
39018;SDS011;24786;51.984;5.872;2022-12-07T15:18:16;5.25;;;1.60;;
39018;SDS011;24786;51.984;5.872;2022-12-07T15:20:42;4.43;;;1.17;;
39018;SDS011;24786;51.984;5.872;2022-12-07T15:23:08;2.38;;;1.30;;
39018;SDS011;24786;51.984;5.872;2022-12-07T15:25:34;4.65;;;1.67;;
39018;SDS011;24786;51.984;5.872;2022-12-07T15:28:00;3.92;;;1.77;;
39018;SDS011;24786;51.984;5.872;2022-12-07T15:30:26;4.78;;;1.50;;
39018;SDS011;24786;51.984;5.872;2022-12-07T15:32:51;2.03;;;1.08;;
39018;SDS011;24786;51.984;5.872;2022-12-07T15:35:18;2.42;;;1.35;;
39018;SDS011;24786;51.984;5.872;2022-12-07T15:37:44;3.45;;;1.75;;
39018;SDS011;24786;51.984;5.872;2022-12-07T15:40:10;2.97;;;1.80;;
39018;SDS011;24786;51.984;5.872;2022-12-07T15:42:37;5.40;;;1.98;;
39018;SDS011;24786;51.984;5.872;2022-12-07T15:45:04;4.03;;;2.15;;
39018;SDS011;24786;51.984;5.872;2022-12-07T15:47:31;3.85;;;1.98;;
39018;SDS011;24786;51.984;5.872;2022-12-07T15:49:59;4.00;;;2.28;;
39018;SDS011;24786;51.984;5.872;2022-12-07T15:52:25;7.13;;;2.28;;
39018;SDS011;24786;51.984;5.872;2022-12-07T15:54:51;5.53;;;2.20;;
39018;SDS011;24786;51.984;5.872;2022-12-07T15:57:16;2.42;;;1.88;;
39018;SDS011;24786;51.984;5.872;2022-12-07T15:59:42;5.03;;;2.08;;
39018;SDS011;24786;51.984;5.872;2022-12-07T16:02:09;2.50;;;2.20;;
39018;SDS011;24786;51.984;5.872;2022-12-07T16:04:35;5.30;;;2.42;;
39018;SDS011;24786;51.984;5.872;2022-12-07T16:07:01;6.10;;;2.20;;
39018;SDS011;24786;51.984;5.872;2022-12-07T16:09:26;2.90;;;1.98;;
39018;SDS011;24786;51.984;5.872;2022-12-07T16:11:52;4.35;;;2.50;;
39018;SDS011;24786;51.984;5.872;2022-12-07T16:14:18;3.10;;;2.10;;
39018;SDS011;24786;51.984;5.872;2022-12-07T16:16:43;5.40;;;3.05;;
39018;SDS011;24786;51.984;5.872;2022-12-07T16:19:09;7.30;;;2.72;;
39018;SDS011;24786;51.984;5.872;2022-12-07T16:21:35;4.15;;;2.17;;
39018;SDS011;24786;51.984;5.872;2022-12-07T16:24:02;4.43;;;2.50;;
39018;SDS011;24786;51.984;5.872;2022-12-07T16:26:28;5.40;;;2.35;;
39018;SDS011;24786;51.984;5.872;2022-12-07T16:28:54;4.57;;;2.33;;
39018;SDS011;24786;51.984;5.872;2022-12-07T16:31:21;3.90;;;2.45;;
39018;SDS011;24786;51.984;5.872;2022-12-07T16:33:49;3.83;;;2.50;;
39018;SDS011;24786;51.984;5.872;2022-12-07T16:36:17;3.42;;;2.53;;
39018;SDS011;24786;51.984;5.872;2022-12-07T16:38:46;5.50;;;2.33;;
39018;SDS011;24786;51.984;5.872;2022-12-07T16:41:11;5.75;;;2.22;;
39018;SDS011;24786;51.984;5.872;2022-12-07T16:43:37;5.75;;;2.70;;
39018;SDS011;24786;51.984;5.872;2022-12-07T16:46:03;4.10;;;2.10;;
39018;SDS011;24786;51.984;5.872;2022-12-07T16:48:29;4.80;;;2.50;;
39018;SDS011;24786;51.984;5.872;2022-12-07T16:50:55;3.53;;;2.33;;
39018;SDS011;24786;51.984;5.872;2022-12-07T16:53:21;5.68;;;2.65;;
39018;SDS011;24786;51.984;5.872;2022-12-07T16:55:48;6.40;;;3.40;;
39018;SDS011;24786;51.984;5.872;2022-12-07T16:58:14;6.53;;;2.63;;
39018;SDS011;24786;51.984;5.872;2022-12-07T17:00:41;8.10;;;3.00;;
39018;SDS011;24786;51.984;5.872;2022-12-07T17:03:08;5.07;;;3.05;;